| Date | Time | Temp. (oF) | Dew Point (oF) | Rel. Hum. (%) | Press. (in.) | Wind Dir. | Wind Speed (mph) | Hourly Rainfall (in.) |
|
|---|---|---|---|---|---|---|---|---|---|
| 1 | 01/29 | 00:00 | 25 | 17 | 73 | 30.37 | NW | 0 | 0.00 |
| 2 | 01/28 | 23:00 | 27 | 17 | 68 | 30.36 | W | 2 | 0.00 |
| 3 | miss | miss | miss | miss | miss | miss | miss | miss | |
| 4 | 01/27 | 17:07 | 35 | -58 | 0 | 52.07 | WNW | 10 | 0.00 |
| 5 | miss | miss | miss | miss | miss | miss | miss | miss | |
| 6 | 01/27 | 17:07 | 35 | -58 | 0 | 52.07 | WNW | 10 | 0.00 |
| 7 | miss | miss | miss | miss | miss | miss | miss | miss | |
| 8 | 01/27 | 17:00 | 35 | 23 | 62 | 30.01 | WNW | 10 | 0.00 |
| 9 | 01/27 | 16:00 | 36 | 23 | 59 | 29.98 | WNW | 22 | 0.00 |
| 10 | 01/27 | 15:00 | 38 | 24 | 59 | 29.93 | WSW | 13 | 0.00 |
| 11 | 01/27 | 14:00 | 38 | 26 | 64 | 29.88 | W | 17 | 0.00 |
| 12 | 01/27 | 13:00 | 39 | 25 | 59 | 29.87 | W | 19 | 0.00 |
| 13 | 01/27 | 12:00 | 37 | 29 | 73 | 29.88 | SW | 7 | 0.00 |
| 14 | 01/27 | 11:00 | 36 | 28 | 75 | 29.87 | NW | 7 | 0.00 |
| 15 | 01/27 | 10:00 | 36 | 29 | 77 | 29.86 | W | 2 | 0.00 |
| 16 | 01/27 | 09:00 | 32 | 28 | 85 | 29.85 | W | 0 | 0.00 |
| 17 | 01/27 | 08:00 | 31 | 28 | 90 | 29.84 | WNW | 1 | 0.00 |
| 18 | 01/27 | 07:00 | 31 | 28 | 90 | 29.82 | W | 1 | 0.00 |
| 19 | 01/27 | 06:00 | 31 | 28 | 89 | 29.82 | NE | 0 | 0.00 |
| 20 | 01/27 | 05:00 | 30 | 27 | 89 | 29.82 | NE | 0 | 0.00 |
| 21 | 01/27 | 04:00 | 30 | 27 | 89 | 29.83 | NE | 0 | 0.00 |
| 22 | 01/27 | 03:00 | 30 | 26 | 86 | 29.83 | NE | 3 | 0.00 |
| 23 | 01/27 | 02:00 | 31 | 27 | 86 | 29.86 | E | 2 | 0.00 |
| 24 | 01/27 | 01:00 | 32 | 26 | 79 | 29.90 | SSE | 2 | 0.00 |